createdAt,value
2022-11-06T00:01:49.009Z,68.00
2022-11-06T00:04:16.069Z,67.92
2022-11-06T00:06:49.193Z,67.34
2022-11-06T00:09:21.554Z,67.38
2022-11-06T00:11:50.391Z,67.50
2022-11-06T00:14:18.214Z,67.53
2022-11-06T00:16:46.836Z,67.86
2022-11-06T00:19:14.596Z,67.86
2022-11-06T00:21:41.691Z,67.77
2022-11-06T00:24:09.709Z,67.86
2022-11-06T00:26:36.978Z,67.47
2022-11-06T00:29:05.159Z,67.38
2022-11-06T00:31:37.483Z,67.25
2022-11-06T00:34:07.716Z,67.37
2022-11-06T00:36:35.249Z,67.44
2022-11-06T00:39:02.827Z,67.62
2022-11-06T00:41:30.865Z,67.48
2022-11-06T00:44:00.212Z,67.35
2022-11-06T00:46:27.362Z,67.40
2022-11-06T00:48:55.281Z,67.45
2022-11-06T00:51:25.430Z,67.50
2022-11-06T00:53:57.747Z,67.56
2022-11-06T00:56:25.755Z,67.39
2022-11-06T00:58:55.206Z,67.22
2022-11-06T01:01:24.845Z,67.60
2022-11-06T01:03:55.771Z,67.54
2022-11-06T01:06:26.005Z,67.58
2022-11-06T01:08:53.888Z,67.46
2022-11-06T01:11:37.510Z,67.04
2022-11-06T01:14:15.416Z,67.78
2022-11-06T01:16:42.785Z,67.89
2022-11-06T01:19:12.692Z,67.68
2022-11-06T01:21:45.888Z,67.52
2022-11-06T01:24:24.341Z,67.36
2022-11-06T01:27:24.227Z,67.73
2022-11-06T01:29:41.357Z,67.75
2022-11-06T01:32:09.834Z,67.58
2022-11-06T01:34:36.975Z,67.75
2022-11-06T01:37:04.254Z,67.80
2022-11-06T01:39:31.456Z,67.37
2022-11-06T01:41:58.845Z,67.57
2022-11-06T01:44:40.965Z,67.47
2022-11-06T01:47:28.500Z,67.47
2022-11-06T01:50:01.831Z,67.53
2022-11-06T01:52:32.369Z,67.56
2022-11-06T01:55:14.780Z,67.51
2022-11-06T01:57:42.888Z,67.34
2022-11-06T02:00:10.611Z,67.64
2022-11-06T02:03:03.436Z,67.32
2022-11-06T02:05:32.312Z,67.05
2022-11-06T02:08:01.028Z,67.46
2022-11-06T02:10:29.169Z,67.22
2022-11-06T02:13:11.750Z,66.86
2022-11-06T02:15:57.918Z,66.78
2022-11-06T02:18:50.783Z,66.82
2022-11-06T02:21:34.390Z,66.97
2022-11-06T02:24:38.395Z,67.02
2022-11-06T02:27:17.514Z,67.04
2022-11-06T02:29:53.546Z,67.00
2022-11-06T02:32:29.321Z,66.97
2022-11-06T02:34:59.217Z,67.11
2022-11-06T02:37:33.741Z,67.25
2022-11-06T02:40:03.200Z,67.12
2022-11-06T02:42:32.455Z,67.05
2022-11-06T02:45:01.778Z,67.10
2022-11-06T02:47:33.584Z,66.99
2022-11-06T02:50:06.405Z,66.63
2022-11-06T02:52:51.115Z,66.96
2022-11-06T02:55:25.308Z,66.95
2022-11-06T02:58:01.648Z,66.89
2022-11-06T03:00:29.013Z,67.08
2022-11-06T03:03:10.190Z,66.44
2022-11-06T03:05:44.264Z,66.90
2022-11-06T03:08:16.946Z,67.11
2022-11-06T03:10:59.768Z,66.63
2022-11-06T03:13:45.566Z,66.52
2022-11-06T03:16:31.232Z,66.44
2022-11-06T03:19:07.589Z,66.78
2022-11-06T03:21:44.815Z,66.73
2022-11-06T03:24:18.312Z,66.88
2022-11-06T03:26:52.753Z,67.02
2022-11-06T03:29:47.839Z,66.47
2022-11-06T03:32:20.914Z,66.79
2022-11-06T03:35:12.864Z,66.74
2022-11-06T03:37:47.648Z,66.98
2022-11-06T03:40:19.879Z,67.26
2022-11-06T03:42:49.828Z,67.39
2022-11-06T03:45:22.079Z,67.09
2022-11-06T03:48:02.137Z,67.20
2022-11-06T03:50:37.504Z,67.27
2022-11-06T03:53:07.491Z,67.33
2022-11-06T03:55:45.499Z,67.66
2022-11-06T03:58:22.061Z,67.66
2022-11-06T04:00:50.660Z,67.61
2022-11-06T04:03:37.969Z,67.65
2022-11-06T04:06:18.913Z,67.75
2022-11-06T04:09:12.517Z,67.48
2022-11-06T04:12:01.201Z,67.58
2022-11-06T04:14:32.000Z,67.12
2022-11-06T04:17:02.872Z,67.79
2022-11-06T04:19:29.955Z,67.91
2022-11-06T04:22:02.465Z,67.74
2022-11-06T04:25:21.640Z,67.95
2022-11-06T04:28:08.895Z,67.48
2022-11-06T04:30:45.250Z,67.50
2022-11-06T04:33:26.983Z,67.69
2022-11-06T04:36:11.284Z,67.57
2022-11-06T04:38:54.583Z,67.79
2022-11-06T04:41:34.847Z,68.02
2022-11-06T04:44:10.304Z,68.07
2022-11-06T04:46:44.319Z,67.95
2022-11-06T04:49:12.509Z,67.95
2022-11-06T04:51:40.902Z,67.94
2022-11-06T04:54:12.027Z,68.02
2022-11-06T04:56:43.056Z,67.97
2022-11-06T04:59:16.008Z,67.88
2022-11-06T05:01:43.141Z,68.20
2022-11-06T05:04:11.727Z,68.26
2022-11-06T05:06:41.230Z,68.31
2022-11-06T05:09:10.004Z,68.34
2022-11-06T05:11:38.592Z,68.24
2022-11-06T05:14:05.751Z,68.48
2022-11-06T05:16:32.759Z,68.36
2022-11-06T05:18:59.739Z,68.55
2022-11-06T05:21:45.210Z,68.04
2022-11-06T05:24:12.323Z,68.23
2022-11-06T05:26:39.312Z,68.48
2022-11-06T05:29:06.458Z,68.20
2022-11-06T05:31:33.667Z,68.37
2022-11-06T05:34:00.879Z,68.27
2022-11-06T05:36:27.871Z,68.10
2022-11-06T05:38:54.803Z,68.48
2022-11-06T05:41:21.970Z,68.34
2022-11-06T05:43:49.250Z,68.45
2022-11-06T05:46:42.849Z,68.29
2022-11-06T05:49:03.375Z,68.23
2022-11-06T05:51:30.455Z,68.58
2022-11-06T05:53:57.405Z,68.48
2022-11-06T05:56:24.359Z,68.31
2022-11-06T05:58:51.984Z,68.25
2022-11-06T06:01:19.334Z,68.47
2022-11-06T06:03:46.630Z,68.29
2022-11-06T06:06:13.662Z,68.44
2022-11-06T06:08:40.794Z,68.65
2022-11-06T06:11:08.356Z,68.21
2022-11-06T06:13:38.462Z,68.31
2022-11-06T06:16:05.820Z,68.04
2022-11-06T06:18:32.677Z,68.26
2022-11-06T06:20:59.659Z,68.25
2022-11-06T06:23:26.822Z,68.13
2022-11-06T06:25:55.435Z,68.29
2022-11-06T06:28:22.389Z,68.31
2022-11-06T06:30:49.428Z,68.42
2022-11-06T06:33:16.585Z,68.42
2022-11-06T06:35:43.584Z,68.66
2022-11-06T06:38:10.827Z,68.23
2022-11-06T06:40:38.146Z,68.67
2022-11-06T06:43:05.076Z,68.40
2022-11-06T06:45:32.104Z,68.50
2022-11-06T06:48:06.502Z,68.40
2022-11-06T06:50:33.519Z,68.41
2022-11-06T06:53:00.953Z,67.95
2022-11-06T06:55:27.903Z,68.30
2022-11-06T06:58:02.271Z,67.89
2022-11-06T07:00:29.830Z,68.42
2022-11-06T07:02:57.123Z,68.24
2022-11-06T07:05:25.226Z,68.03
2022-11-06T07:07:52.425Z,68.29
2022-11-06T07:10:19.535Z,67.82
2022-11-06T07:12:46.478Z,68.28
2022-11-06T07:15:13.597Z,68.50
2022-11-06T07:17:40.719Z,68.36
2022-11-06T07:20:08.906Z,68.27
2022-11-06T07:22:37.604Z,68.36
2022-11-06T07:25:06.189Z,67.99
2022-11-06T07:27:33.869Z,68.37
2022-11-06T07:30:01.133Z,68.04
2022-11-06T07:32:31.394Z,68.23
2022-11-06T07:34:58.364Z,68.03
2022-11-06T07:37:25.371Z,68.25
2022-11-06T07:39:54.137Z,68.05
2022-11-06T07:42:21.082Z,68.06
2022-11-06T07:45:10.153Z,68.06
2022-11-06T07:47:37.260Z,67.98
2022-11-06T07:50:04.567Z,67.87
2022-11-06T07:52:31.543Z,68.24
2022-11-06T07:54:58.487Z,68.30
2022-11-06T07:57:25.609Z,68.32
2022-11-06T07:59:52.654Z,68.43
2022-11-06T08:02:19.787Z,68.11
2022-11-06T08:04:46.918Z,68.49
2022-11-06T08:07:13.871Z,68.49
2022-11-06T08:09:40.990Z,68.50
2022-11-06T08:12:09.488Z,68.22
2022-11-06T08:14:41.293Z,68.56
2022-11-06T08:17:08.681Z,68.32
2022-11-06T08:19:35.636Z,68.14
2022-11-06T08:22:03.507Z,68.14
2022-11-06T08:24:30.727Z,68.17
2022-11-06T08:27:17.248Z,67.83
2022-11-06T08:29:44.337Z,67.95
2022-11-06T08:32:11.452Z,67.87
2022-11-06T08:34:38.442Z,68.03
2022-11-06T08:37:07.108Z,68.14
2022-11-06T08:39:35.229Z,68.08
2022-11-06T08:42:02.264Z,68.46
2022-11-06T08:44:29.282Z,68.19
2022-11-06T08:46:56.217Z,67.89
2022-11-06T08:49:23.185Z,67.71
2022-11-06T08:51:50.935Z,68.21
2022-11-06T08:54:17.876Z,68.33
2022-11-06T08:56:44.927Z,68.15
2022-11-06T08:59:12.363Z,67.81
2022-11-06T09:01:39.463Z,68.15
2022-11-06T09:04:06.545Z,68.11
2022-11-06T09:06:33.681Z,67.95
2022-11-06T09:09:00.847Z,68.24
2022-11-06T09:11:27.941Z,67.84
2022-11-06T09:13:54.965Z,68.20
2022-11-06T09:16:22.963Z,68.13
2022-11-06T09:18:50.486Z,67.74
2022-11-06T09:21:17.752Z,67.97
2022-11-06T09:23:46.276Z,68.20
2022-11-06T09:26:17.014Z,67.58
2022-11-06T09:28:46.191Z,67.53
2022-11-06T09:31:13.541Z,67.78
2022-11-06T09:33:40.532Z,67.25
2022-11-06T09:36:13.958Z,67.20
2022-11-06T09:38:41.906Z,67.15
2022-11-06T09:41:33.990Z,67.06
2022-11-06T09:44:05.677Z,67.22
2022-11-06T09:46:39.175Z,66.73
2022-11-06T09:49:44.552Z,66.74
2022-11-06T09:52:28.426Z,66.45
2022-11-06T09:55:04.830Z,66.69
2022-11-06T09:57:42.770Z,66.86
2022-11-06T10:00:14.618Z,67.04
2022-11-06T10:02:58.055Z,66.35
2022-11-06T10:05:38.229Z,66.52
2022-11-06T10:08:23.976Z,66.57
2022-11-06T10:11:02.794Z,66.39
2022-11-06T10:13:45.807Z,66.53
2022-11-06T10:16:21.903Z,66.83
2022-11-06T10:19:05.970Z,66.14
2022-11-06T10:22:05.330Z,66.37
2022-11-06T10:24:33.288Z,66.62
2022-11-06T10:27:07.189Z,66.39
2022-11-06T10:29:41.111Z,66.41
2022-11-06T10:32:23.294Z,65.89
2022-11-06T10:34:56.164Z,66.45
2022-11-06T10:37:28.362Z,66.44
2022-11-06T10:39:58.026Z,66.70
2022-11-06T10:42:38.335Z,66.41
2022-11-06T10:45:18.761Z,66.57
2022-11-06T10:47:52.479Z,66.52
2022-11-06T10:50:19.718Z,66.57
2022-11-06T10:52:56.550Z,65.92
2022-11-06T10:55:41.864Z,65.90
2022-11-06T10:58:18.783Z,65.86
2022-11-06T11:00:46.148Z,66.32
2022-11-06T11:03:47.141Z,65.84
2022-11-06T11:06:14.115Z,66.34
2022-11-06T11:08:43.502Z,66.10
2022-11-06T11:11:25.637Z,65.81
2022-11-06T11:14:01.696Z,66.38
2022-11-06T11:16:34.121Z,66.04
2022-11-06T11:19:41.576Z,65.68
2022-11-06T11:22:21.983Z,65.34
2022-11-06T11:25:07.976Z,65.48
2022-11-06T11:27:46.178Z,65.38
2022-11-06T11:30:26.540Z,65.62
2022-11-06T11:32:57.889Z,65.98
2022-11-06T11:35:30.925Z,65.96
2022-11-06T11:38:13.611Z,65.18
2022-11-06T11:40:41.050Z,65.82
2022-11-06T11:43:29.918Z,64.83
2022-11-06T11:46:09.076Z,65.92
2022-11-06T11:48:57.855Z,65.32
2022-11-06T11:51:32.456Z,65.31
2022-11-06T11:54:11.866Z,65.09
2022-11-06T11:57:09.280Z,65.11
2022-11-06T11:59:47.243Z,64.87
2022-11-06T12:02:23.625Z,65.45
2022-11-06T12:05:01.307Z,65.29
2022-11-06T12:07:46.280Z,65.42
2022-11-06T12:10:31.079Z,64.89
2022-11-06T12:13:00.416Z,65.73
2022-11-06T12:15:45.619Z,65.15
2022-11-06T12:18:19.901Z,65.27
2022-11-06T12:20:49.709Z,65.82
2022-11-06T12:23:29.799Z,65.46
2022-11-06T12:26:08.867Z,65.36
2022-11-06T12:28:39.979Z,65.52
2022-11-06T12:31:20.411Z,65.80
2022-11-06T12:34:07.898Z,65.59
2022-11-06T12:37:22.577Z,65.40
2022-11-06T12:40:14.490Z,65.40
2022-11-06T12:43:09.070Z,65.35
2022-11-06T12:45:38.986Z,65.74
2022-11-06T12:48:25.976Z,65.12
2022-11-06T12:51:12.608Z,65.43
2022-11-06T12:53:52.907Z,65.57
2022-11-06T12:56:36.543Z,65.39
2022-11-06T12:59:12.656Z,65.98
2022-11-06T13:01:48.353Z,65.99
2022-11-06T13:04:29.083Z,65.84
2022-11-06T13:07:28.275Z,65.89
2022-11-06T13:09:55.425Z,66.35
2022-11-06T13:12:24.901Z,66.27
2022-11-06T13:15:17.149Z,66.38
2022-11-06T13:17:58.250Z,66.08
2022-11-06T13:20:50.393Z,66.12
2022-11-06T13:23:27.888Z,66.33
2022-11-06T13:26:26.065Z,66.44
2022-11-06T13:28:57.288Z,66.23
2022-11-06T13:31:30.786Z,66.65
2022-11-06T13:34:01.611Z,66.50
2022-11-06T13:36:31.526Z,66.08
2022-11-06T13:39:48.382Z,66.16
2022-11-06T13:42:26.755Z,66.58
2022-11-06T13:44:55.345Z,66.80
2022-11-06T13:47:33.355Z,66.53
2022-11-06T13:50:08.066Z,66.34
2022-11-06T13:52:57.731Z,66.53
2022-11-06T13:55:24.745Z,66.50
2022-11-06T13:58:24.909Z,66.42
2022-11-06T14:01:16.575Z,66.55
2022-11-06T14:04:39.407Z,66.70
2022-11-06T14:07:09.806Z,66.47
2022-11-06T14:09:41.319Z,66.64
2022-11-06T14:12:16.766Z,66.52
2022-11-06T14:14:43.867Z,66.97
2022-11-06T14:17:16.911Z,67.02
2022-11-06T14:19:50.868Z,66.73
2022-11-06T14:22:40.643Z,67.06
2022-11-06T14:25:29.255Z,66.54
2022-11-06T14:27:57.135Z,66.82
2022-11-06T14:31:10.464Z,67.04
2022-11-06T14:33:43.208Z,66.90
2022-11-06T14:36:25.648Z,67.07
2022-11-06T14:38:53.764Z,66.75
2022-11-06T14:41:36.000Z,66.98
2022-11-06T14:44:18.534Z,66.83
2022-11-06T14:46:51.537Z,66.80
2022-11-06T14:49:30.123Z,66.95
2022-11-06T14:52:13.001Z,67.00
2022-11-06T14:54:50.009Z,67.20
2022-11-06T14:57:33.702Z,67.12
2022-11-06T15:00:01.345Z,67.05
2022-11-06T15:02:32.491Z,67.02
2022-11-06T15:05:08.075Z,67.11
2022-11-06T15:08:04.579Z,67.15
2022-11-06T15:10:43.105Z,67.25
2022-11-06T15:13:23.364Z,67.20
2022-11-06T15:15:55.105Z,67.58
2022-11-06T15:18:24.986Z,67.14
2022-11-06T15:20:58.741Z,67.23
2022-11-06T15:23:38.101Z,67.06
2022-11-06T15:26:25.734Z,66.85
2022-11-06T15:29:01.729Z,67.48
2022-11-06T15:31:30.626Z,67.13
2022-11-06T15:34:05.206Z,67.49
2022-11-06T15:36:40.785Z,67.40
2022-11-06T15:39:29.424Z,67.37
2022-11-06T15:41:56.985Z,67.45
2022-11-06T15:44:25.215Z,67.32
2022-11-06T15:46:58.159Z,67.55
2022-11-06T15:49:26.218Z,68.03
2022-11-06T15:51:58.984Z,67.69
2022-11-06T15:54:36.011Z,67.46
2022-11-06T15:57:17.562Z,67.89
2022-11-06T15:59:44.845Z,67.63
2022-11-06T16:02:16.781Z,67.36
2022-11-06T16:04:46.353Z,67.56
2022-11-06T16:07:15.146Z,67.78
2022-11-06T16:09:42.833Z,67.53
2022-11-06T16:12:14.745Z,67.75
2022-11-06T16:14:49.071Z,67.87
2022-11-06T16:17:34.446Z,67.92
2022-11-06T16:20:04.525Z,67.64
2022-11-06T16:22:34.666Z,67.77
2022-11-06T16:25:04.590Z,67.87
2022-11-06T16:27:42.006Z,67.64
2022-11-06T16:30:25.634Z,67.65
2022-11-06T16:32:53.601Z,67.96
2022-11-06T16:35:37.418Z,67.72
2022-11-06T16:38:39.877Z,67.99
2022-11-06T16:41:05.635Z,68.18
2022-11-06T16:43:32.888Z,67.92
2022-11-06T16:46:08.033Z,68.11
2022-11-06T16:48:36.713Z,67.70
2022-11-06T16:51:15.942Z,68.20
2022-11-06T16:53:57.552Z,68.14
2022-11-06T16:56:52.829Z,67.86
2022-11-06T16:59:53.308Z,68.37
2022-11-06T17:02:23.507Z,68.07
2022-11-06T17:04:50.922Z,68.06
2022-11-06T17:07:22.603Z,68.02
2022-11-06T17:09:49.561Z,68.21
2022-11-06T17:12:42.273Z,67.94
2022-11-06T17:15:10.290Z,68.12
2022-11-06T17:17:40.126Z,67.87
2022-11-06T17:20:19.029Z,67.95
2022-11-06T17:22:46.763Z,68.58
2022-11-06T17:25:14.141Z,68.45
2022-11-06T17:27:41.757Z,68.45
2022-11-06T17:30:14.843Z,68.11
2022-11-06T17:32:42.515Z,68.20
2022-11-06T17:35:10.433Z,68.35
2022-11-06T17:37:37.511Z,68.36
2022-11-06T17:40:05.505Z,68.56
2022-11-06T17:42:37.234Z,68.33
2022-11-06T17:45:06.286Z,68.36
2022-11-06T17:47:33.406Z,68.61
2022-11-06T17:50:00.730Z,68.40
2022-11-06T17:52:28.398Z,68.46
2022-11-06T17:54:56.781Z,68.51
2022-11-06T17:57:24.450Z,68.19
2022-11-06T18:00:11.656Z,68.31
2022-11-06T18:02:59.730Z,68.57
2022-11-06T18:05:26.999Z,68.36
2022-11-06T18:07:54.347Z,68.68
2022-11-06T18:10:26.074Z,68.54
2022-11-06T18:12:56.560Z,68.59
2022-11-06T18:15:24.262Z,68.73
2022-11-06T18:18:15.632Z,68.39
2022-11-06T18:20:47.097Z,68.62
2022-11-06T18:23:14.966Z,68.60
2022-11-06T18:25:43.529Z,68.52
2022-11-06T18:28:10.648Z,68.64
2022-11-06T18:30:38.898Z,68.48
2022-11-06T18:33:06.410Z,68.58
2022-11-06T18:35:33.291Z,68.23
2022-11-06T18:38:00.423Z,68.54
2022-11-06T18:40:27.717Z,68.94
2022-11-06T18:42:55.176Z,68.83
2022-11-06T18:45:22.504Z,68.51
2022-11-06T18:47:57.271Z,68.40
2022-11-06T18:50:24.340Z,68.79
2022-11-06T18:52:58.390Z,68.65
2022-11-06T18:55:25.979Z,68.70
2022-11-06T18:57:53.777Z,68.73
2022-11-06T19:00:22.171Z,68.72
2022-11-06T19:02:49.359Z,68.83
2022-11-06T19:05:16.710Z,69.17
2022-11-06T19:07:51.141Z,68.75
2022-11-06T19:10:20.002Z,69.03
2022-11-06T19:12:47.085Z,68.77
2022-11-06T19:15:14.056Z,68.87
2022-11-06T19:17:40.985Z,68.63
2022-11-06T19:20:10.834Z,68.89
2022-11-06T19:22:42.082Z,68.81
2022-11-06T19:25:09.463Z,68.81
2022-11-06T19:27:36.507Z,68.79
2022-11-06T19:30:04.043Z,69.21
2022-11-06T19:32:31.204Z,68.99
2022-11-06T19:34:58.306Z,69.03
2022-11-06T19:37:25.432Z,68.69
2022-11-06T19:39:53.523Z,68.69
2022-11-06T19:42:20.888Z,69.03
2022-11-06T19:44:47.882Z,69.00
2022-11-06T19:47:15.181Z,69.06
2022-11-06T19:49:42.178Z,68.77
2022-11-06T19:52:41.733Z,69.03
2022-11-06T19:55:26.861Z,69.15
2022-11-06T19:57:43.126Z,69.00
2022-11-06T20:00:11.674Z,68.93
2022-11-06T20:02:39.445Z,69.35
2022-11-06T20:05:07.641Z,69.31
2022-11-06T20:07:34.801Z,68.96
2022-11-06T20:10:02.980Z,69.38
2022-11-06T20:12:30.070Z,68.95
2022-11-06T20:14:57.280Z,69.15
2022-11-06T20:17:24.464Z,69.30
2022-11-06T20:19:51.607Z,69.18
2022-11-06T20:22:18.929Z,69.05
2022-11-06T20:24:45.958Z,69.11
2022-11-06T20:27:15.283Z,69.36
2022-11-06T20:29:48.720Z,69.14
2022-11-06T20:32:19.027Z,69.00
2022-11-06T20:34:46.675Z,69.15
2022-11-06T20:37:13.793Z,68.94
2022-11-06T20:39:43.844Z,68.89
2022-11-06T20:42:13.612Z,68.88
2022-11-06T20:44:40.661Z,69.48
2022-11-06T20:47:07.607Z,69.15
2022-11-06T20:49:36.651Z,69.29
2022-11-06T20:52:19.326Z,68.96
2022-11-06T20:54:47.728Z,68.87
2022-11-06T20:57:16.183Z,69.32
2022-11-06T20:59:43.513Z,68.88
2022-11-06T21:02:13.528Z,69.17
2022-11-06T21:04:41.175Z,69.05
2022-11-06T21:07:08.309Z,68.96
2022-11-06T21:09:35.411Z,69.15
2022-11-06T21:12:02.594Z,68.94
2022-11-06T21:14:30.361Z,69.24
2022-11-06T21:16:57.360Z,69.19
2022-11-06T21:19:24.556Z,68.87
2022-11-06T21:21:56.864Z,69.22
2022-11-06T21:24:24.598Z,69.30
2022-11-06T21:26:56.017Z,68.98
2022-11-06T21:29:24.940Z,69.30
2022-11-06T21:31:52.444Z,69.31
2022-11-06T21:34:21.432Z,68.99
2022-11-06T21:36:48.796Z,69.11
2022-11-06T21:39:18.985Z,69.03
2022-11-06T21:41:47.116Z,69.41
2022-11-06T21:44:16.856Z,69.43
2022-11-06T21:46:48.797Z,69.26
2022-11-06T21:49:15.800Z,69.18
2022-11-06T21:51:43.389Z,69.09
2022-11-06T21:54:32.420Z,69.15
2022-11-06T21:56:59.478Z,69.24
2022-11-06T21:59:28.576Z,69.32
2022-11-06T22:01:55.982Z,69.15
2022-11-06T22:04:23.350Z,69.65
2022-11-06T22:06:50.336Z,69.50
2022-11-06T22:10:07.171Z,69.64
2022-11-06T22:12:34.817Z,69.69
2022-11-06T22:15:01.828Z,69.52
2022-11-06T22:17:33.142Z,69.61
2022-11-06T22:20:05.069Z,69.90
2022-11-06T22:22:33.778Z,69.79
2022-11-06T22:25:00.721Z,69.99
2022-11-06T22:27:27.698Z,69.92
2022-11-06T22:29:54.599Z,70.24
2022-11-06T22:32:21.562Z,70.38
2022-11-06T22:34:48.483Z,70.42
2022-11-06T22:37:15.437Z,69.83
2022-11-06T22:39:42.386Z,70.62
2022-11-06T22:42:09.275Z,70.51
2022-11-06T22:44:36.861Z,70.52
2022-11-06T22:47:09.422Z,70.31
2022-11-06T22:49:36.392Z,70.67
2022-11-06T22:52:03.453Z,70.80
2022-11-06T22:54:30.392Z,70.96
2022-11-06T22:56:57.343Z,70.94
2022-11-06T22:59:24.502Z,70.91
2022-11-06T23:01:51.460Z,71.07
2022-11-06T23:04:18.483Z,70.88
2022-11-06T23:06:45.877Z,71.06
2022-11-06T23:09:13.106Z,71.44
2022-11-06T23:11:40.254Z,71.45
2022-11-06T23:14:09.271Z,71.02
2022-11-06T23:16:55.179Z,71.51
2022-11-06T23:19:22.625Z,71.27
2022-11-06T23:21:49.916Z,71.67
2022-11-06T23:24:16.875Z,71.34
2022-11-06T23:26:45.677Z,71.63
2022-11-06T23:29:12.751Z,71.56
2022-11-06T23:31:41.346Z,71.66
2022-11-06T23:34:08.586Z,71.51
2022-11-06T23:36:35.670Z,71.63
2022-11-06T23:39:03.194Z,71.78
2022-11-06T23:41:46.237Z,72.29
2022-11-06T23:44:33.374Z,72.22
2022-11-06T23:47:00.998Z,72.37
2022-11-06T23:49:28.292Z,72.35
2022-11-06T23:51:55.460Z,72.08
2022-11-06T23:54:22.548Z,72.08
2022-11-06T23:56:49.726Z,72.38
2022-11-06T23:59:16.952Z,72.20
